createdAt,value
2019-01-02T00:00:32.694Z,100.00
2019-01-02T00:03:02.329Z,100.00
2019-01-02T00:05:32.442Z,100.00
2019-01-02T00:08:01.759Z,100.00
2019-01-02T00:10:31.486Z,100.00
2019-01-02T00:13:00.828Z,100.00
2019-01-02T00:15:30.790Z,100.00
2019-01-02T00:18:00.103Z,100.00
2019-01-02T00:20:29.389Z,100.00
2019-01-02T00:22:58.712Z,100.00
2019-01-02T00:25:28.098Z,100.00
2019-01-02T00:27:58.013Z,100.00
2019-01-02T00:30:27.343Z,100.00
2019-01-02T00:32:57.115Z,100.00
2019-01-02T00:35:26.444Z,100.00
2019-01-02T00:37:56.442Z,100.00
2019-01-02T00:40:25.737Z,100.00
2019-01-02T00:42:55.597Z,100.00
2019-01-02T00:45:24.914Z,100.00
2019-01-02T00:47:54.366Z,99.38
2019-01-02T00:50:23.654Z,98.54
2019-01-02T00:52:52.963Z,99.53
2019-01-02T00:55:22.282Z,98.80
2019-01-02T00:57:51.688Z,100.00
2019-01-02T01:00:22.311Z,98.68
2019-01-02T01:02:51.943Z,98.23
2019-01-02T01:05:21.524Z,98.76
2019-01-02T01:07:51.087Z,97.36
2019-01-02T01:10:20.391Z,97.63
2019-01-02T01:12:49.666Z,98.26
2019-01-02T01:15:19.046Z,96.53
2019-01-02T01:17:48.329Z,96.91
2019-01-02T01:20:18.372Z,97.64
2019-01-02T01:22:47.666Z,96.52
2019-01-02T01:25:16.975Z,96.32
2019-01-02T01:27:46.279Z,96.88
2019-01-02T01:30:16.137Z,96.10
2019-01-02T01:32:45.527Z,96.08
2019-01-02T01:35:14.936Z,96.87
2019-01-02T01:37:46.890Z,96.13
2019-01-02T01:40:16.170Z,95.97
2019-01-02T01:42:45.508Z,94.57
2019-01-02T01:45:15.161Z,95.06
2019-01-02T01:47:44.475Z,95.32
2019-01-02T01:50:14.431Z,94.59
2019-01-02T01:52:43.761Z,94.23
2019-01-02T01:55:13.492Z,93.79
2019-01-02T01:57:43.382Z,93.81
2019-01-02T02:00:15.343Z,92.47
2019-01-02T02:02:44.646Z,93.77
2019-01-02T02:05:14.471Z,92.83
2019-01-02T02:07:43.900Z,92.38
2019-01-02T02:10:15.724Z,92.30
2019-01-02T02:12:45.035Z,92.84
2019-01-02T02:15:14.316Z,92.48
2019-01-02T02:17:44.167Z,92.82
2019-01-02T02:20:14.424Z,93.61
2019-01-02T02:22:43.836Z,92.50
2019-01-02T02:25:15.990Z,91.99
2019-01-02T02:27:45.450Z,93.54
2019-01-02T02:30:16.160Z,92.26
2019-01-02T02:32:46.083Z,91.71
2019-01-02T02:35:15.952Z,91.60
2019-01-02T02:37:45.962Z,92.45
2019-01-02T02:40:16.025Z,92.65
2019-01-02T02:42:45.586Z,91.46
2019-01-02T02:45:15.376Z,91.88
2019-01-02T02:47:45.053Z,92.30
2019-01-02T02:50:15.670Z,91.25
2019-01-02T02:52:45.148Z,91.50
2019-01-02T02:55:17.803Z,91.15
2019-01-02T02:57:47.151Z,91.27
2019-01-02T03:00:17.349Z,91.22
2019-01-02T03:02:46.700Z,90.93
2019-01-02T03:05:17.076Z,90.93
2019-01-02T03:07:46.945Z,91.53
2019-01-02T03:10:17.378Z,91.48
2019-01-02T03:12:47.174Z,91.69
2019-01-02T03:15:17.163Z,92.49
2019-01-02T03:17:46.950Z,92.60
2019-01-02T03:20:16.816Z,92.30
2019-01-02T03:22:46.128Z,93.07
2019-01-02T03:25:15.964Z,93.17
2019-01-02T03:27:45.892Z,93.48
2019-01-02T03:30:17.775Z,94.12
2019-01-02T03:32:48.182Z,93.92
2019-01-02T03:35:18.172Z,93.87
2019-01-02T03:37:47.499Z,94.86
2019-01-02T03:40:16.804Z,95.33
2019-01-02T03:42:46.296Z,95.49
2019-01-02T03:45:18.047Z,96.23
2019-01-02T03:47:48.103Z,94.77
2019-01-02T03:50:19.312Z,95.54
2019-01-02T03:52:48.878Z,95.55
2019-01-02T03:55:18.202Z,97.29
2019-01-02T03:57:47.926Z,99.05
2019-01-02T04:00:19.564Z,98.96
2019-01-02T04:02:49.114Z,99.37
2019-01-02T04:05:21.436Z,98.45
2019-01-02T04:07:56.719Z,98.91
2019-01-02T04:10:26.316Z,98.93
2019-01-02T04:12:55.632Z,99.32
2019-01-02T04:15:25.009Z,98.00
2019-01-02T04:17:54.316Z,98.75
2019-01-02T04:20:23.603Z,98.57
2019-01-02T04:22:53.449Z,98.65
2019-01-02T04:25:22.733Z,99.34
2019-01-02T04:27:52.327Z,100.00
2019-01-02T04:30:21.647Z,100.00
2019-01-02T04:32:50.960Z,100.00
2019-01-02T04:35:20.256Z,100.00
2019-01-02T04:37:49.573Z,100.00
2019-01-02T04:40:18.889Z,100.00
2019-01-02T04:42:48.460Z,100.00
2019-01-02T04:45:17.779Z,100.00
2019-01-02T04:47:47.067Z,100.00
2019-01-02T04:50:16.379Z,99.39
2019-01-02T04:52:45.672Z,99.29
2019-01-02T04:55:15.058Z,97.79
2019-01-02T04:57:44.354Z,98.20
2019-01-02T05:00:15.901Z,97.89
2019-01-02T05:02:45.178Z,98.99
2019-01-02T05:05:14.554Z,98.49
2019-01-02T05:07:43.936Z,98.76
2019-01-02T05:10:14.015Z,98.51
2019-01-02T05:12:43.331Z,98.56
2019-01-02T05:15:12.913Z,97.91
2019-01-02T05:17:42.339Z,97.80
2019-01-02T05:20:13.786Z,97.89
2019-01-02T05:22:43.374Z,98.37
2019-01-02T05:25:12.662Z,98.29
2019-01-02T05:27:42.049Z,99.26
2019-01-02T05:30:16.283Z,99.47
2019-01-02T05:32:45.582Z,99.79
2019-01-02T05:35:14.862Z,99.92
2019-01-02T05:37:44.168Z,99.37
2019-01-02T05:40:16.141Z,98.77
2019-01-02T05:42:45.415Z,99.08
2019-01-02T05:45:15.367Z,99.35
2019-01-02T05:47:44.677Z,98.71
2019-01-02T05:50:13.980Z,98.87
2019-01-02T05:52:43.484Z,98.97
2019-01-02T05:55:12.850Z,99.08
2019-01-02T05:57:42.311Z,99.15
2019-01-02T06:00:13.463Z,98.82
2019-01-02T06:02:42.959Z,99.10
2019-01-02T06:05:12.411Z,99.67
2019-01-02T06:07:41.726Z,98.65
2019-01-02T06:10:13.049Z,99.07
2019-01-02T06:12:42.692Z,99.81
2019-01-02T06:15:13.712Z,99.12
2019-01-02T06:17:43.020Z,99.48
2019-01-02T06:20:14.632Z,99.55
2019-01-02T06:22:44.210Z,98.97
2019-01-02T06:25:13.556Z,99.82
2019-01-02T06:27:42.873Z,100.00
2019-01-02T06:30:12.996Z,100.00
2019-01-02T06:32:42.399Z,100.00
2019-01-02T06:35:11.682Z,100.00
2019-01-02T06:37:40.997Z,100.00
2019-01-02T06:40:11.465Z,100.00
2019-01-02T06:42:40.842Z,100.00
2019-01-02T06:45:12.116Z,100.00
2019-01-02T06:47:41.413Z,100.00
2019-01-02T06:50:14.004Z,100.00
2019-01-02T06:52:43.309Z,100.00
2019-01-02T06:55:12.640Z,100.00
2019-01-02T06:57:41.959Z,100.00
2019-01-02T07:00:14.302Z,100.00
2019-01-02T07:02:43.622Z,100.00
2019-01-02T07:05:12.941Z,100.00
2019-01-02T07:07:42.243Z,100.00
2019-01-02T07:10:11.572Z,100.00
2019-01-02T07:12:40.892Z,100.00
2019-01-02T07:15:10.890Z,100.00
2019-01-02T07:17:40.220Z,100.00
2019-01-02T07:20:13.795Z,100.00
2019-01-02T07:22:43.164Z,100.00
2019-01-02T07:25:12.625Z,100.00
2019-01-02T07:27:42.013Z,100.00
2019-01-02T07:30:14.695Z,100.00
2019-01-02T07:32:44.005Z,100.00
2019-01-02T07:35:40.717Z,100.00
2019-01-02T07:38:15.790Z,100.00
2019-01-02T07:41:06.183Z,100.00
2019-01-02T07:44:00.951Z,100.00
2019-01-02T07:46:51.760Z,100.00
2019-01-02T07:49:26.993Z,100.00
2019-01-02T07:52:18.635Z,100.00
2019-01-02T07:55:19.541Z,100.00
2019-01-02T07:58:17.464Z,100.00
2019-01-02T08:01:09.102Z,100.00
2019-01-02T08:03:50.331Z,100.00
2019-01-02T08:06:28.580Z,100.00
2019-01-02T08:09:18.269Z,100.00
2019-01-02T08:11:59.628Z,100.00
2019-01-02T08:14:46.885Z,100.00
2019-01-02T08:17:41.634Z,100.00
2019-01-02T08:20:28.991Z,100.00
2019-01-02T08:23:07.413Z,100.00
2019-01-02T08:25:45.666Z,100.00
2019-01-02T08:28:18.041Z,100.00
2019-01-02T08:31:02.539Z,100.00
2019-01-02T08:33:40.733Z,100.00
2019-01-02T08:36:49.560Z,100.00
2019-01-02T08:39:38.574Z,100.00
2019-01-02T08:42:29.239Z,100.00
2019-01-02T08:45:21.431Z,100.00
2019-01-02T08:48:09.139Z,100.00
2019-01-02T08:51:02.570Z,100.00
2019-01-02T08:54:08.347Z,100.00
2019-01-02T08:56:40.709Z,100.00
2019-01-02T08:59:27.895Z,100.00
2019-01-02T09:02:00.420Z,100.00
2019-01-02T09:04:42.240Z,100.00
2019-01-02T09:07:33.932Z,100.00
2019-01-02T09:10:09.311Z,100.00
2019-01-02T09:12:41.643Z,100.00
2019-01-02T09:15:19.473Z,100.00
2019-01-02T09:17:57.146Z,100.00
2019-01-02T09:20:38.054Z,100.00
2019-01-02T09:23:10.421Z,100.00
2019-01-02T09:25:48.199Z,100.00
2019-01-02T09:28:41.680Z,100.00
2019-01-02T09:31:30.302Z,100.00
2019-01-02T09:34:05.391Z,100.00
2019-01-02T09:36:49.656Z,100.00
2019-01-02T09:39:38.389Z,100.00
2019-01-02T09:42:10.756Z,100.00
2019-01-02T09:44:58.149Z,100.00
2019-01-02T09:47:42.434Z,100.00
2019-01-02T09:50:34.210Z,100.00
2019-01-02T09:53:21.471Z,100.00
2019-01-02T09:55:53.803Z,100.00
2019-01-02T09:58:41.165Z,100.00
2019-01-02T10:01:16.080Z,100.00
2019-01-02T10:04:25.014Z,100.00
2019-01-02T10:07:30.516Z,100.00
2019-01-02T10:10:11.941Z,100.00
2019-01-02T10:12:47.153Z,100.00
2019-01-02T10:15:52.530Z,100.00
2019-01-02T10:18:36.129Z,100.00
2019-01-02T10:21:17.514Z,100.00
2019-01-02T10:23:52.646Z,100.00
2019-01-02T10:26:31.100Z,100.00
2019-01-02T10:29:15.517Z,100.00
2019-01-02T10:31:48.176Z,100.00
2019-01-02T10:34:26.507Z,100.00
2019-01-02T10:37:01.870Z,100.00
2019-01-02T10:39:53.690Z,100.00
2019-01-02T10:42:35.101Z,100.00
2019-01-02T10:45:32.767Z,100.00
2019-01-02T10:48:05.159Z,100.00
2019-01-02T10:51:00.245Z,100.00
2019-01-02T10:53:35.802Z,100.00
2019-01-02T10:56:11.240Z,100.00
2019-01-02T10:59:09.044Z,100.00
2019-01-02T11:01:55.960Z,100.00
2019-01-02T11:04:57.106Z,100.00
2019-01-02T11:07:29.466Z,100.00
2019-01-02T11:10:07.864Z,100.00
2019-01-02T11:12:48.837Z,100.00
2019-01-02T11:15:39.350Z,100.00
2019-01-02T11:18:37.067Z,100.00
2019-01-02T11:21:15.487Z,98.37
2019-01-02T11:24:05.655Z,98.93
2019-01-02T11:27:08.380Z,98.97
2019-01-02T11:30:10.907Z,97.82
2019-01-02T11:33:02.148Z,98.16
2019-01-02T11:35:43.275Z,97.98
2019-01-02T11:38:32.177Z,97.49
2019-01-02T11:41:13.473Z,97.92
2019-01-02T11:43:54.806Z,98.52
2019-01-02T11:46:24.295Z,98.83
2019-01-02T11:48:53.677Z,99.02
2019-01-02T11:51:22.963Z,96.10
2019-01-02T11:53:52.750Z,92.60
2019-01-02T11:56:22.037Z,94.10
2019-01-02T11:58:51.353Z,95.88
2019-01-02T12:01:20.646Z,95.37
2019-01-02T12:03:50.154Z,90.26
2019-01-02T12:06:19.467Z,91.41
2019-01-02T12:08:48.841Z,88.64
2019-01-02T12:11:18.121Z,87.61
2019-01-02T12:13:47.421Z,89.44
2019-01-02T12:16:16.739Z,89.44
2019-01-02T12:18:46.033Z,91.44
2019-01-02T12:21:15.351Z,89.18
2019-01-02T12:23:44.653Z,89.08
2019-01-02T12:26:14.017Z,88.53
2019-01-02T12:28:43.314Z,88.22
2019-01-02T12:31:12.719Z,88.22
2019-01-02T12:33:42.061Z,85.79
2019-01-02T12:36:11.374Z,84.71
2019-01-02T12:38:40.685Z,83.39
2019-01-02T12:41:09.987Z,82.42
2019-01-02T12:43:39.268Z,83.43
2019-01-02T12:46:08.591Z,84.74
2019-01-02T12:48:37.887Z,88.24
2019-01-02T12:51:07.197Z,87.43
2019-01-02T12:53:36.497Z,87.43
2019-01-02T12:56:05.819Z,87.51
2019-01-02T12:58:35.150Z,87.26
2019-01-02T13:01:04.839Z,84.06
2019-01-02T13:03:42.627Z,81.92
2019-01-02T13:06:41.650Z,82.54
2019-01-02T13:09:20.292Z,83.73
2019-01-02T13:11:55.380Z,86.60
2019-01-02T13:14:39.786Z,87.42
2019-01-02T13:17:21.178Z,89.70
2019-01-02T13:20:10.173Z,92.18
2019-01-02T13:23:14.419Z,93.90
2019-01-02T13:25:50.115Z,92.24
2019-01-02T13:28:34.379Z,91.84
2019-01-02T13:31:32.283Z,92.66
2019-01-02T13:34:19.741Z,92.01
2019-01-02T13:36:54.876Z,91.48
2019-01-02T13:40:00.287Z,90.37
2019-01-02T13:42:38.472Z,90.14
2019-01-02T13:45:19.802Z,88.86
2019-01-02T13:48:27.366Z,86.46
2019-01-02T13:50:59.714Z,85.09
2019-01-02T13:53:29.177Z,84.70
2019-01-02T13:55:58.483Z,83.41
2019-01-02T13:58:27.803Z,84.02
2019-01-02T14:00:57.095Z,83.61
2019-01-02T14:03:26.514Z,82.47
2019-01-02T14:05:56.300Z,82.23
2019-01-02T14:08:25.621Z,83.33
2019-01-02T14:10:55.113Z,82.26
2019-01-02T14:13:24.417Z,82.56
2019-01-02T14:15:53.728Z,82.17
2019-01-02T14:18:23.031Z,84.21
2019-01-02T14:20:52.365Z,84.27
2019-01-02T14:23:21.661Z,84.01
2019-01-02T14:25:50.972Z,83.18
2019-01-02T14:28:20.276Z,81.45
2019-01-02T14:30:50.878Z,80.96
2019-01-02T14:33:20.361Z,80.07
2019-01-02T14:35:51.375Z,79.73
2019-01-02T14:38:20.662Z,79.70
2019-01-02T14:40:50.002Z,79.53
2019-01-02T14:43:19.299Z,79.58
2019-01-02T14:45:48.618Z,79.12
2019-01-02T14:48:17.897Z,78.36
2019-01-02T14:50:47.224Z,79.63
2019-01-02T14:53:16.728Z,79.15
2019-01-02T14:55:46.037Z,80.03
2019-01-02T14:58:15.393Z,80.28
2019-01-02T15:00:44.809Z,80.66
2019-01-02T15:03:14.130Z,81.06
2019-01-02T15:05:47.879Z,80.84
2019-01-02T15:08:21.223Z,86.23
2019-01-02T15:10:53.274Z,92.02
2019-01-02T15:13:23.028Z,91.60
2019-01-02T15:15:52.322Z,82.53
2019-01-02T15:18:21.639Z,84.52
2019-01-02T15:20:51.457Z,80.20
2019-01-02T15:23:20.791Z,81.91
2019-01-02T15:25:50.214Z,82.02
2019-01-02T15:28:19.563Z,77.09
2019-01-02T15:30:48.907Z,79.02
2019-01-02T15:33:18.206Z,79.02
2019-01-02T15:35:48.965Z,80.18
2019-01-02T15:38:18.511Z,82.60
2019-01-02T15:40:47.835Z,77.67
2019-01-02T15:43:17.211Z,79.52
2019-01-02T15:45:46.951Z,79.92
2019-01-02T15:48:16.383Z,80.17
2019-01-02T15:50:45.895Z,81.32
2019-01-02T15:53:15.438Z,81.83
2019-01-02T15:55:45.196Z,82.00
2019-01-02T15:58:14.497Z,83.36
2019-01-02T16:00:43.944Z,84.31
2019-01-02T16:03:13.232Z,84.82
2019-01-02T16:05:42.612Z,85.90
2019-01-02T16:08:12.026Z,86.93
2019-01-02T16:10:41.535Z,88.07
2019-01-02T16:13:11.002Z,88.94
2019-01-02T16:15:40.611Z,89.36
2019-01-02T16:18:10.960Z,89.35
2019-01-02T16:20:40.506Z,89.37
2019-01-02T16:23:10.289Z,89.30
2019-01-02T16:25:39.763Z,89.70
2019-01-02T16:28:09.909Z,89.40
2019-01-02T16:30:39.417Z,89.58
2019-01-02T16:33:08.864Z,89.36
2019-01-02T16:35:38.676Z,89.53
2019-01-02T16:38:08.184Z,88.93
2019-01-02T16:40:37.833Z,89.09
2019-01-02T16:43:07.367Z,89.16
2019-01-02T16:45:36.648Z,88.55
2019-01-02T16:48:06.581Z,88.21
2019-01-02T16:50:35.911Z,89.06
2019-01-02T16:53:05.208Z,88.41
2019-01-02T16:55:34.690Z,89.17
2019-01-02T16:58:04.082Z,88.91
2019-01-02T17:00:33.470Z,89.47
2019-01-02T17:03:02.779Z,89.14
2019-01-02T17:05:32.112Z,89.46
2019-01-02T17:08:01.433Z,88.29
2019-01-02T17:10:30.728Z,88.83
2019-01-02T17:13:00.115Z,88.64
2019-01-02T17:15:29.475Z,87.85
2019-01-02T17:17:58.774Z,87.85
2019-01-02T17:20:28.043Z,87.90
2019-01-02T17:22:57.374Z,87.08
2019-01-02T17:25:26.657Z,87.47
2019-01-02T17:27:55.971Z,87.52
2019-01-02T17:30:25.275Z,87.24
2019-01-02T17:32:54.568Z,87.41
2019-01-02T17:35:23.916Z,87.95
2019-01-02T17:37:53.199Z,88.37
2019-01-02T17:40:22.558Z,88.46
2019-01-02T17:42:51.870Z,88.82
2019-01-02T17:45:21.148Z,88.64
2019-01-02T17:47:50.463Z,88.18
2019-01-02T17:50:19.761Z,89.56
2019-01-02T17:52:49.052Z,89.40
2019-01-02T17:55:18.452Z,89.25
2019-01-02T17:57:47.735Z,89.81
2019-01-02T18:00:17.391Z,90.20
2019-01-02T18:02:46.746Z,90.18
2019-01-02T18:05:16.102Z,90.13
2019-01-02T18:07:45.595Z,90.80
2019-01-02T18:10:14.914Z,91.86
2019-01-02T18:12:44.210Z,92.11
2019-01-02T18:15:13.598Z,91.76
2019-01-02T18:17:42.934Z,92.66
2019-01-02T18:20:12.319Z,92.58
2019-01-02T18:22:41.647Z,92.33
2019-01-02T18:25:10.973Z,93.06
2019-01-02T18:27:40.285Z,93.13
2019-01-02T18:30:12.000Z,93.71
2019-01-02T18:32:41.306Z,93.97
2019-01-02T18:35:10.682Z,94.52
2019-01-02T18:37:40.063Z,94.84
2019-01-02T18:40:09.707Z,95.04
2019-01-02T18:42:38.998Z,94.61
2019-01-02T18:45:08.394Z,95.55
2019-01-02T18:47:37.696Z,95.53
2019-01-02T18:50:08.963Z,96.05
2019-01-02T18:52:38.274Z,96.34
2019-01-02T18:55:07.756Z,96.50
2019-01-02T18:57:37.079Z,96.49
2019-01-02T19:00:09.566Z,96.49
2019-01-02T19:02:38.894Z,96.96
2019-01-02T19:05:08.755Z,97.50
2019-01-02T19:07:38.096Z,97.86
2019-01-02T19:10:07.905Z,97.97
2019-01-02T19:12:37.251Z,98.36
2019-01-02T19:15:07.888Z,98.48
2019-01-02T19:17:37.481Z,98.38
2019-01-02T19:20:07.439Z,98.72
2019-01-02T19:22:36.770Z,98.45
2019-01-02T19:25:06.913Z,99.42
2019-01-02T19:27:36.250Z,99.62
2019-01-02T19:30:07.970Z,99.59
2019-01-02T19:32:37.311Z,99.60
2019-01-02T19:35:07.180Z,99.77
2019-01-02T19:37:36.509Z,99.97
2019-01-02T19:40:06.862Z,100.00
2019-01-02T19:42:36.151Z,100.00
2019-01-02T19:45:08.306Z,100.00
2019-01-02T19:47:37.643Z,100.00
2019-01-02T19:50:08.772Z,100.00
2019-01-02T19:52:38.070Z,100.00
2019-01-02T19:55:08.431Z,100.00
2019-01-02T19:57:37.728Z,100.00
2019-01-02T20:00:10.046Z,100.00
2019-01-02T20:02:39.342Z,100.00
2019-01-02T20:05:08.731Z,100.00
2019-01-02T20:07:38.060Z,100.00
2019-01-02T20:10:09.190Z,100.00
2019-01-02T20:12:38.598Z,100.00
2019-01-02T20:15:10.359Z,100.00
2019-01-02T20:17:39.683Z,100.00
2019-01-02T20:20:10.846Z,100.00
2019-01-02T20:22:40.173Z,100.00
2019-01-02T20:25:09.630Z,100.00
2019-01-02T20:27:39.041Z,100.00
2019-01-02T20:30:10.330Z,100.00
2019-01-02T20:32:39.722Z,100.00
2019-01-02T20:35:09.192Z,100.00
2019-01-02T20:37:38.496Z,100.00
2019-01-02T20:40:08.403Z,100.00
2019-01-02T20:42:37.692Z,100.00
2019-01-02T20:45:07.071Z,100.00
2019-01-02T20:47:36.364Z,100.00
2019-01-02T20:50:08.523Z,100.00
2019-01-02T20:52:37.864Z,100.00
2019-01-02T20:55:08.400Z,100.00
2019-01-02T20:57:37.967Z,100.00
2019-01-02T21:00:11.407Z,100.00
2019-01-02T21:02:40.796Z,100.00
2019-01-02T21:05:10.233Z,100.00
2019-01-02T21:07:39.569Z,100.00
2019-01-02T21:10:09.310Z,100.00
2019-01-02T21:12:38.634Z,100.00
2019-01-02T21:15:08.732Z,100.00
2019-01-02T21:17:38.126Z,100.00
2019-01-02T21:20:09.193Z,100.00
2019-01-02T21:22:38.508Z,100.00
2019-01-02T21:25:09.350Z,100.00
2019-01-02T21:27:38.668Z,100.00
2019-01-02T21:30:10.257Z,100.00
2019-01-02T21:32:39.550Z,100.00
2019-01-02T21:35:09.312Z,100.00
2019-01-02T21:37:38.649Z,100.00
2019-01-02T21:40:08.901Z,100.00
2019-01-02T21:42:38.231Z,100.00
2019-01-02T21:45:07.956Z,100.00
2019-01-02T21:47:37.282Z,100.00
2019-01-02T21:50:08.333Z,100.00
2019-01-02T21:52:37.665Z,100.00
2019-01-02T21:55:07.705Z,100.00
2019-01-02T21:57:37.040Z,100.00
2019-01-02T22:00:09.441Z,100.00
2019-01-02T22:02:40.457Z,100.00
2019-01-02T22:05:10.047Z,100.00
2019-01-02T22:07:39.373Z,100.00
2019-01-02T22:10:09.431Z,100.00
2019-01-02T22:12:38.736Z,100.00
2019-01-02T22:15:10.191Z,100.00
2019-01-02T22:17:40.499Z,100.00
2019-01-02T22:20:10.278Z,100.00
2019-01-02T22:22:39.669Z,100.00
2019-01-02T22:25:09.075Z,100.00
2019-01-02T22:27:38.798Z,100.00
2019-01-02T22:30:09.462Z,100.00
2019-01-02T22:32:38.746Z,100.00
2019-01-02T22:35:08.136Z,100.00
2019-01-02T22:37:37.515Z,100.00
2019-01-02T22:40:08.087Z,100.00
2019-01-02T22:42:37.553Z,100.00
2019-01-02T22:45:07.263Z,100.00
2019-01-02T22:47:36.656Z,100.00
2019-01-02T22:50:08.370Z,100.00
2019-01-02T22:52:37.871Z,100.00
2019-01-02T22:55:07.222Z,100.00
2019-01-02T22:57:36.546Z,100.00
2019-01-02T23:00:11.051Z,100.00
2019-01-02T23:02:42.177Z,100.00
2019-01-02T23:05:29.222Z,100.00
2019-01-02T23:08:16.777Z,100.00
2019-01-02T23:11:00.041Z,100.00
2019-01-02T23:13:45.924Z,100.00
2019-01-02T23:16:25.723Z,100.00
2019-01-02T23:19:13.175Z,100.00
2019-01-02T23:21:53.444Z,100.00
2019-01-02T23:24:30.133Z,100.00
2019-01-02T23:27:01.068Z,100.00
2019-01-02T23:29:48.136Z,100.00
2019-01-02T23:32:31.388Z,100.00
2019-01-02T23:35:20.344Z,100.00
2019-01-02T23:37:54.441Z,100.00
2019-01-02T23:40:25.405Z,100.00
2019-01-02T23:43:01.848Z,100.00
2019-01-02T23:45:49.120Z,100.00
2019-01-02T23:48:32.264Z,100.00
2019-01-02T23:51:06.180Z,100.00
2019-01-02T23:53:37.153Z,100.00
2019-01-02T23:56:10.789Z,100.00
2019-01-02T23:58:41.773Z,100.00
